METAR Formatted Surface Weather Observation
Issued by NWS

Current Version | Previous Version | Text Only | Print | Product List | Glossary On
Versions: 1 2 3 4 5 6 7 8 9 10 11 12 13 14 15
000
SAUS45 KTWC 210352
MTRSAD
METAR KSAD 210351Z AUTO 12004KT 10SM CLR 22/01 A3004 RMK AO2 SLP134
T02170006



USA.gov is the U.S. government's official web portal to all federal, state and local government web resources and services.